Lac Du Flambeau, Wisconsin
Current Conditions -  °F | °C
As of 3:35 AM on Thursday 23 Oct 2014 (Local Time) from KARV Reporting Station
Overcast Overcast  
Wind Chill: 42°   Ceiling: 3700
Heat Index: 47°   Visibility: 10mi
Dew Point: 37°   Wind: 10mph
Humidity: 69%   Direction: 190°S
Pressure: 30.08"   Gusts: 16mph
Location:  45.97°N, 89.89°W
Report Text: KARV 230835Z AUTO 19009G14KT 10SM SCT030 BKN037 OVC060 08/03 A3008 RMK AO2 T00820029
Loading
Personal Weather Stations






























Interactive Weather Map New forecast layout! Learn more

10-Day Weather Forecast

Advertisements
Track Severe Weather on mobile